sensor_id;sensor_type;location;lat;lon;timestamp;temperature;humidity
49413;DHT22;35493;50.276;9.372;2023-02-12T00:00:23;5.00;88.30
49413;DHT22;35493;50.276;9.372;2023-02-12T00:02:50;5.00;88.30
49413;DHT22;35493;50.276;9.372;2023-02-12T00:05:22;5.00;88.30
49413;DHT22;35493;50.276;9.372;2023-02-12T00:07:49;5.00;88.30
49413;DHT22;35493;50.276;9.372;2023-02-12T00:10:16;5.00;88.30
49413;DHT22;35493;50.276;9.372;2023-02-12T00:12:44;5.00;88.30
49413;DHT22;35493;50.276;9.372;2023-02-12T00:15:12;5.00;88.30
49413;DHT22;35493;50.276;9.372;2023-02-12T00:17:43;5.00;88.20
49413;DHT22;35493;50.276;9.372;2023-02-12T00:20:10;5.00;88.20
49413;DHT22;35493;50.276;9.372;2023-02-12T00:22:37;5.00;88.20
49413;DHT22;35493;50.276;9.372;2023-02-12T00:25:05;4.90;88.30
49413;DHT22;35493;50.276;9.372;2023-02-12T00:27:32;5.00;88.20
49413;DHT22;35493;50.276;9.372;2023-02-12T00:29:59;5.00;88.20
49413;DHT22;35493;50.276;9.372;2023-02-12T00:32:28;5.00;88.30
49413;DHT22;35493;50.276;9.372;2023-02-12T00:34:54;4.90;88.30
49413;DHT22;35493;50.276;9.372;2023-02-12T00:37:21;5.00;88.30
49413;DHT22;35493;50.276;9.372;2023-02-12T00:39:48;5.00;88.20
49413;DHT22;35493;50.276;9.372;2023-02-12T00:42:15;5.00;88.20
49413;DHT22;35493;50.276;9.372;2023-02-12T00:44:42;5.00;88.20
49413;DHT22;35493;50.276;9.372;2023-02-12T00:47:09;4.90;88.30
49413;DHT22;35493;50.276;9.372;2023-02-12T00:49:37;4.90;88.30
49413;DHT22;35493;50.276;9.372;2023-02-12T00:52:04;4.90;88.30
49413;DHT22;35493;50.276;9.372;2023-02-12T00:54:31;5.00;88.30
49413;DHT22;35493;50.276;9.372;2023-02-12T00:56:58;4.90;88.20
49413;DHT22;35493;50.276;9.372;2023-02-12T00:59:28;5.00;88.20
49413;DHT22;35493;50.276;9.372;2023-02-12T01:01:56;5.00;88.20
49413;DHT22;35493;50.276;9.372;2023-02-12T01:04:24;5.00;88.20
49413;DHT22;35493;50.276;9.372;2023-02-12T01:06:54;5.00;88.30
49413;DHT22;35493;50.276;9.372;2023-02-12T01:09:21;5.00;88.30
49413;DHT22;35493;50.276;9.372;2023-02-12T01:11:48;4.90;88.30
49413;DHT22;35493;50.276;9.372;2023-02-12T01:14:15;4.90;88.40
49413;DHT22;35493;50.276;9.372;2023-02-12T01:16:42;4.90;88.40
49413;DHT22;35493;50.276;9.372;2023-02-12T01:19:10;4.90;88.50
49413;DHT22;35493;50.276;9.372;2023-02-12T01:21:37;4.90;88.50
49413;DHT22;35493;50.276;9.372;2023-02-12T01:24:05;5.00;88.40
49413;DHT22;35493;50.276;9.372;2023-02-12T01:26:32;4.90;88.40
49413;DHT22;35493;50.276;9.372;2023-02-12T01:29:04;4.90;88.40
49413;DHT22;35493;50.276;9.372;2023-02-12T01:31:34;5.00;88.50
49413;DHT22;35493;50.276;9.372;2023-02-12T01:34:02;4.90;88.50
49413;DHT22;35493;50.276;9.372;2023-02-12T01:36:31;4.90;88.50
49413;DHT22;35493;50.276;9.372;2023-02-12T01:38:58;4.90;88.60
49413;DHT22;35493;50.276;9.372;2023-02-12T01:41:31;4.90;88.40
49413;DHT22;35493;50.276;9.372;2023-02-12T01:44:11;4.90;88.60
49413;DHT22;35493;50.276;9.372;2023-02-12T01:46:39;4.90;88.70
49413;DHT22;35493;50.276;9.372;2023-02-12T01:49:09;4.90;88.60
49413;DHT22;35493;50.276;9.372;2023-02-12T01:51:38;4.90;88.60
49413;DHT22;35493;50.276;9.372;2023-02-12T01:54:07;4.90;88.70
49413;DHT22;35493;50.276;9.372;2023-02-12T01:56:38;4.90;88.70
49413;DHT22;35493;50.276;9.372;2023-02-12T01:59:05;4.90;88.70
49413;DHT22;35493;50.276;9.372;2023-02-12T02:01:33;4.90;88.60
49413;DHT22;35493;50.276;9.372;2023-02-12T02:04:01;4.90;88.60
49413;DHT22;35493;50.276;9.372;2023-02-12T02:06:31;4.90;88.70
49413;DHT22;35493;50.276;9.372;2023-02-12T02:09:00;4.90;88.70
49413;DHT22;35493;50.276;9.372;2023-02-12T02:11:28;4.90;88.70
49413;DHT22;35493;50.276;9.372;2023-02-12T02:14:15;4.90;88.70
49413;DHT22;35493;50.276;9.372;2023-02-12T02:17:23;4.90;88.80
49413;DHT22;35493;50.276;9.372;2023-02-12T02:20:07;4.80;88.80
49413;DHT22;35493;50.276;9.372;2023-02-12T02:22:43;4.80;88.90
49413;DHT22;35493;50.276;9.372;2023-02-12T02:28:34;4.80;88.90
49413;DHT22;35493;50.276;9.372;2023-02-12T02:31:12;4.80;88.90
49413;DHT22;35493;50.276;9.372;2023-02-12T02:33:47;4.70;88.90
49413;DHT22;35493;50.276;9.372;2023-02-12T02:36:24;4.70;88.90
49413;DHT22;35493;50.276;9.372;2023-02-12T02:38:56;4.70;88.90
49413;DHT22;35493;50.276;9.372;2023-02-12T02:41:25;4.70;88.80
49413;DHT22;35493;50.276;9.372;2023-02-12T02:43:53;4.70;88.90
49413;DHT22;35493;50.276;9.372;2023-02-12T02:46:26;4.70;88.90
49413;DHT22;35493;50.276;9.372;2023-02-12T02:48:59;4.70;89.00
49413;DHT22;35493;50.276;9.372;2023-02-12T02:51:30;4.70;89.00
49413;DHT22;35493;50.276;9.372;2023-02-12T02:54:03;4.70;89.00
49413;DHT22;35493;50.276;9.372;2023-02-12T02:56:32;4.70;88.90
49413;DHT22;35493;50.276;9.372;2023-02-12T02:59:03;4.70;88.90
49413;DHT22;35493;50.276;9.372;2023-02-12T03:01:37;4.70;88.90
49413;DHT22;35493;50.276;9.372;2023-02-12T03:04:10;4.80;88.90
49413;DHT22;35493;50.276;9.372;2023-02-12T03:06:42;4.70;88.90
49413;DHT22;35493;50.276;9.372;2023-02-12T03:09:15;4.70;88.80
49413;DHT22;35493;50.276;9.372;2023-02-12T03:11:44;4.80;88.70
49413;DHT22;35493;50.276;9.372;2023-02-12T03:14:15;4.80;88.70
49413;DHT22;35493;50.276;9.372;2023-02-12T03:16:50;4.80;88.60
49413;DHT22;35493;50.276;9.372;2023-02-12T03:19:20;4.80;88.60
49413;DHT22;35493;50.276;9.372;2023-02-12T03:21:52;4.80;88.60
49413;DHT22;35493;50.276;9.372;2023-02-12T03:24:23;4.80;88.50
49413;DHT22;35493;50.276;9.372;2023-02-12T03:26:58;4.80;88.60
49413;DHT22;35493;50.276;9.372;2023-02-12T03:29:25;4.80;88.60
49413;DHT22;35493;50.276;9.372;2023-02-12T03:34:47;4.80;88.80
49413;DHT22;35493;50.276;9.372;2023-02-12T03:37:20;4.70;88.80
49413;DHT22;35493;50.276;9.372;2023-02-12T03:39:53;4.80;88.70
49413;DHT22;35493;50.276;9.372;2023-02-12T03:42:30;4.70;88.80
49413;DHT22;35493;50.276;9.372;2023-02-12T03:45:03;4.80;88.70
49413;DHT22;35493;50.276;9.372;2023-02-12T03:47:40;4.80;88.80
49413;DHT22;35493;50.276;9.372;2023-02-12T03:50:12;4.80;88.80
49413;DHT22;35493;50.276;9.372;2023-02-12T03:52:39;4.70;88.80
49413;DHT22;35493;50.276;9.372;2023-02-12T03:55:06;4.70;88.90
49413;DHT22;35493;50.276;9.372;2023-02-12T03:57:41;4.70;88.90
49413;DHT22;35493;50.276;9.372;2023-02-12T04:00:14;4.70;88.90
49413;DHT22;35493;50.276;9.372;2023-02-12T04:02:42;4.70;88.80
49413;DHT22;35493;50.276;9.372;2023-02-12T04:05:16;4.70;88.90
49413;DHT22;35493;50.276;9.372;2023-02-12T04:07:44;4.70;88.80
49413;DHT22;35493;50.276;9.372;2023-02-12T04:10:11;4.70;88.90
49413;DHT22;35493;50.276;9.372;2023-02-12T04:12:40;4.70;88.90
49413;DHT22;35493;50.276;9.372;2023-02-12T04:15:35;4.70;88.90
49413;DHT22;35493;50.276;9.372;2023-02-12T04:18:09;4.70;88.90
49413;DHT22;35493;50.276;9.372;2023-02-12T04:20:49;4.70;88.80
49413;DHT22;35493;50.276;9.372;2023-02-12T04:23:21;4.70;88.90
49413;DHT22;35493;50.276;9.372;2023-02-12T04:25:54;4.70;88.90
49413;DHT22;35493;50.276;9.372;2023-02-12T04:28:33;4.70;88.80
49413;DHT22;35493;50.276;9.372;2023-02-12T04:31:02;4.70;88.80
49413;DHT22;35493;50.276;9.372;2023-02-12T04:33:33;4.70;88.80
49413;DHT22;35493;50.276;9.372;2023-02-12T04:36:05;4.70;88.80
49413;DHT22;35493;50.276;9.372;2023-02-12T04:38:38;4.70;88.80
49413;DHT22;35493;50.276;9.372;2023-02-12T04:41:06;4.70;88.80
49413;DHT22;35493;50.276;9.372;2023-02-12T04:43:36;4.70;88.90
49413;DHT22;35493;50.276;9.372;2023-02-12T04:46:05;4.70;88.90
49413;DHT22;35493;50.276;9.372;2023-02-12T04:48:34;4.70;88.90
49413;DHT22;35493;50.276;9.372;2023-02-12T04:51:01;4.70;88.90
49413;DHT22;35493;50.276;9.372;2023-02-12T04:53:28;4.70;89.00
49413;DHT22;35493;50.276;9.372;2023-02-12T04:55:55;4.70;88.90
49413;DHT22;35493;50.276;9.372;2023-02-12T04:58:22;4.70;88.80
49413;DHT22;35493;50.276;9.372;2023-02-12T05:00:49;4.70;88.80
49413;DHT22;35493;50.276;9.372;2023-02-12T05:03:18;4.70;88.80
49413;DHT22;35493;50.276;9.372;2023-02-12T05:05:46;4.70;88.80
49413;DHT22;35493;50.276;9.372;2023-02-12T05:08:13;4.70;88.80
49413;DHT22;35493;50.276;9.372;2023-02-12T05:10:40;4.70;88.90
49413;DHT22;35493;50.276;9.372;2023-02-12T05:13:07;4.70;88.80
49413;DHT22;35493;50.276;9.372;2023-02-12T05:15:34;4.70;88.90
49413;DHT22;35493;50.276;9.372;2023-02-12T05:18:00;4.70;88.90
49413;DHT22;35493;50.276;9.372;2023-02-12T05:20:27;4.70;88.90
49413;DHT22;35493;50.276;9.372;2023-02-12T05:22:56;4.70;88.90
49413;DHT22;35493;50.276;9.372;2023-02-12T05:25:22;4.70;88.90
49413;DHT22;35493;50.276;9.372;2023-02-12T05:27:49;4.70;88.90
49413;DHT22;35493;50.276;9.372;2023-02-12T05:30:16;4.70;88.90
49413;DHT22;35493;50.276;9.372;2023-02-12T05:32:43;4.70;88.90
49413;DHT22;35493;50.276;9.372;2023-02-12T05:35:10;4.80;88.90
49413;DHT22;35493;50.276;9.372;2023-02-12T05:37:37;4.70;88.80
49413;DHT22;35493;50.276;9.372;2023-02-12T05:40:06;4.70;88.80
49413;DHT22;35493;50.276;9.372;2023-02-12T05:42:33;4.70;88.90
49413;DHT22;35493;50.276;9.372;2023-02-12T05:45:00;4.70;89.00
49413;DHT22;35493;50.276;9.372;2023-02-12T05:47:27;4.70;88.90
49413;DHT22;35493;50.276;9.372;2023-02-12T05:49:54;4.70;88.90
49413;DHT22;35493;50.276;9.372;2023-02-12T05:52:21;4.70;88.90
49413;DHT22;35493;50.276;9.372;2023-02-12T05:54:48;4.70;88.90
49413;DHT22;35493;50.276;9.372;2023-02-12T05:57:17;4.70;88.90
49413;DHT22;35493;50.276;9.372;2023-02-12T05:59:44;4.80;88.90
49413;DHT22;35493;50.276;9.372;2023-02-12T06:02:11;4.80;88.90
49413;DHT22;35493;50.276;9.372;2023-02-12T06:04:37;4.70;88.90
49413;DHT22;35493;50.276;9.372;2023-02-12T06:07:04;4.70;88.90
49413;DHT22;35493;50.276;9.372;2023-02-12T06:09:32;4.70;88.90
49413;DHT22;35493;50.276;9.372;2023-02-12T06:12:00;4.70;88.90
49413;DHT22;35493;50.276;9.372;2023-02-12T06:14:34;4.80;88.90
49413;DHT22;35493;50.276;9.372;2023-02-12T06:17:01;4.80;88.90
49413;DHT22;35493;50.276;9.372;2023-02-12T06:19:28;4.80;88.80
49413;DHT22;35493;50.276;9.372;2023-02-12T06:21:55;4.80;88.80
49413;DHT22;35493;50.276;9.372;2023-02-12T06:24:22;4.80;88.80
49413;DHT22;35493;50.276;9.372;2023-02-12T06:26:52;4.80;88.80
49413;DHT22;35493;50.276;9.372;2023-02-12T06:29:19;4.70;88.80
49413;DHT22;35493;50.276;9.372;2023-02-12T06:31:48;4.70;88.80
49413;DHT22;35493;50.276;9.372;2023-02-12T06:34:15;4.80;88.90
49413;DHT22;35493;50.276;9.372;2023-02-12T06:36:43;4.70;88.90
49413;DHT22;35493;50.276;9.372;2023-02-12T06:39:12;4.70;88.90
49413;DHT22;35493;50.276;9.372;2023-02-12T06:41:39;4.80;89.00
49413;DHT22;35493;50.276;9.372;2023-02-12T06:44:07;4.70;88.90
49413;DHT22;35493;50.276;9.372;2023-02-12T06:46:34;4.70;88.90
49413;DHT22;35493;50.276;9.372;2023-02-12T06:49:02;4.80;89.00
49413;DHT22;35493;50.276;9.372;2023-02-12T06:51:29;4.80;88.90
49413;DHT22;35493;50.276;9.372;2023-02-12T06:53:57;4.80;88.90
49413;DHT22;35493;50.276;9.372;2023-02-12T06:56:25;4.80;88.90
49413;DHT22;35493;50.276;9.372;2023-02-12T06:58:53;4.70;89.00
49413;DHT22;35493;50.276;9.372;2023-02-12T07:01:22;4.80;89.00
49413;DHT22;35493;50.276;9.372;2023-02-12T07:03:51;4.80;89.10
49413;DHT22;35493;50.276;9.372;2023-02-12T07:06:21;4.70;89.10
49413;DHT22;35493;50.276;9.372;2023-02-12T07:08:48;4.70;89.10
49413;DHT22;35493;50.276;9.372;2023-02-12T07:11:16;4.70;89.10
49413;DHT22;35493;50.276;9.372;2023-02-12T07:13:43;4.80;89.10
49413;DHT22;35493;50.276;9.372;2023-02-12T07:16:12;4.80;89.10
49413;DHT22;35493;50.276;9.372;2023-02-12T07:18:39;4.70;89.20
49413;DHT22;35493;50.276;9.372;2023-02-12T07:21:07;4.80;89.20
49413;DHT22;35493;50.276;9.372;2023-02-12T07:23:41;4.80;89.20
49413;DHT22;35493;50.276;9.372;2023-02-12T07:26:10;4.80;89.20
49413;DHT22;35493;50.276;9.372;2023-02-12T07:28:37;4.80;89.20
49413;DHT22;35493;50.276;9.372;2023-02-12T07:31:09;4.80;89.20
49413;DHT22;35493;50.276;9.372;2023-02-12T07:33:37;4.80;89.10
49413;DHT22;35493;50.276;9.372;2023-02-12T07:36:08;4.90;89.10
49413;DHT22;35493;50.276;9.372;2023-02-12T07:38:36;4.90;89.10
49413;DHT22;35493;50.276;9.372;2023-02-12T07:41:08;4.90;89.10
49413;DHT22;35493;50.276;9.372;2023-02-12T07:43:37;4.90;89.20
49413;DHT22;35493;50.276;9.372;2023-02-12T07:46:09;4.90;89.20
49413;DHT22;35493;50.276;9.372;2023-02-12T07:48:36;4.90;89.30
49413;DHT22;35493;50.276;9.372;2023-02-12T07:51:05;4.90;89.30
49413;DHT22;35493;50.276;9.372;2023-02-12T07:53:32;4.90;89.40
49413;DHT22;35493;50.276;9.372;2023-02-12T07:56:11;4.90;89.50
49413;DHT22;35493;50.276;9.372;2023-02-12T07:58:39;4.90;89.50
49413;DHT22;35493;50.276;9.372;2023-02-12T08:01:14;4.90;89.60
49413;DHT22;35493;50.276;9.372;2023-02-12T08:03:42;4.90;89.80
49413;DHT22;35493;50.276;9.372;2023-02-12T08:06:11;4.90;89.80
49413;DHT22;35493;50.276;9.372;2023-02-12T08:08:38;4.90;89.80
49413;DHT22;35493;50.276;9.372;2023-02-12T08:11:06;4.90;89.70
49413;DHT22;35493;50.276;9.372;2023-02-12T08:13:35;5.00;89.90
49413;DHT22;35493;50.276;9.372;2023-02-12T08:16:03;5.00;90.00
49413;DHT22;35493;50.276;9.372;2023-02-12T08:18:31;5.00;90.10
49413;DHT22;35493;50.276;9.372;2023-02-12T08:21:02;5.00;90.00
49413;DHT22;35493;50.276;9.372;2023-02-12T08:23:30;5.00;90.10
49413;DHT22;35493;50.276;9.372;2023-02-12T08:26:05;5.00;90.00
49413;DHT22;35493;50.276;9.372;2023-02-12T08:28:32;5.00;90.20
49413;DHT22;35493;50.276;9.372;2023-02-12T08:31:01;5.00;90.20
49413;DHT22;35493;50.276;9.372;2023-02-12T08:33:28;5.00;90.30
49413;DHT22;35493;50.276;9.372;2023-02-12T08:36:01;5.00;90.40
49413;DHT22;35493;50.276;9.372;2023-02-12T08:38:28;5.10;90.30
49413;DHT22;35493;50.276;9.372;2023-02-12T08:40:55;5.10;90.30
49413;DHT22;35493;50.276;9.372;2023-02-12T08:43:22;5.10;90.30
49413;DHT22;35493;50.276;9.372;2023-02-12T08:45:48;5.10;90.30
49413;DHT22;35493;50.276;9.372;2023-02-12T08:48:17;5.20;90.30
49413;DHT22;35493;50.276;9.372;2023-02-12T08:50:45;5.20;90.40
49413;DHT22;35493;50.276;9.372;2023-02-12T08:53:12;5.20;90.40
49413;DHT22;35493;50.276;9.372;2023-02-12T08:55:39;5.20;90.40
49413;DHT22;35493;50.276;9.372;2023-02-12T08:58:16;5.20;90.50
49413;DHT22;35493;50.276;9.372;2023-02-12T09:00:42;5.20;90.50
49413;DHT22;35493;50.276;9.372;2023-02-12T09:03:09;5.30;90.50
49413;DHT22;35493;50.276;9.372;2023-02-12T09:05:39;5.30;90.30
49413;DHT22;35493;50.276;9.372;2023-02-12T09:08:07;5.30;90.40
49413;DHT22;35493;50.276;9.372;2023-02-12T09:10:37;5.30;90.50
49413;DHT22;35493;50.276;9.372;2023-02-12T09:13:04;5.40;90.50
49413;DHT22;35493;50.276;9.372;2023-02-12T09:15:35;5.40;90.50
49413;DHT22;35493;50.276;9.372;2023-02-12T09:18:02;5.40;90.40
49413;DHT22;35493;50.276;9.372;2023-02-12T09:20:29;5.50;90.40
49413;DHT22;35493;50.276;9.372;2023-02-12T09:22:58;5.60;90.40
49413;DHT22;35493;50.276;9.372;2023-02-12T09:25:27;5.60;90.50
49413;DHT22;35493;50.276;9.372;2023-02-12T09:27:54;5.70;90.50
49413;DHT22;35493;50.276;9.372;2023-02-12T09:30:21;5.70;90.50
49413;DHT22;35493;50.276;9.372;2023-02-12T09:32:50;5.70;90.60
49413;DHT22;35493;50.276;9.372;2023-02-12T09:35:17;5.80;90.50
49413;DHT22;35493;50.276;9.372;2023-02-12T09:37:44;5.80;90.50
49413;DHT22;35493;50.276;9.372;2023-02-12T09:40:20;5.80;90.50
49413;DHT22;35493;50.276;9.372;2023-02-12T09:43:01;5.80;90.50
49413;DHT22;35493;50.276;9.372;2023-02-12T09:45:32;5.90;90.50
49413;DHT22;35493;50.276;9.372;2023-02-12T09:48:09;5.90;90.60
49413;DHT22;35493;50.276;9.372;2023-02-12T09:50:43;5.90;90.70
49413;DHT22;35493;50.276;9.372;2023-02-12T09:53:13;6.00;90.60
49413;DHT22;35493;50.276;9.372;2023-02-12T09:55:43;6.00;90.60
49413;DHT22;35493;50.276;9.372;2023-02-12T09:58:14;6.00;90.70
49413;DHT22;35493;50.276;9.372;2023-02-12T10:00:42;6.10;90.50
49413;DHT22;35493;50.276;9.372;2023-02-12T10:03:16;6.10;90.10
49413;DHT22;35493;50.276;9.372;2023-02-12T10:05:48;6.20;90.70
49413;DHT22;35493;50.276;9.372;2023-02-12T10:08:30;6.20;90.70
49413;DHT22;35493;50.276;9.372;2023-02-12T10:11:16;6.30;90.60
49413;DHT22;35493;50.276;9.372;2023-02-12T10:13:50;6.40;90.60
49413;DHT22;35493;50.276;9.372;2023-02-12T10:16:36;6.50;90.50
49413;DHT22;35493;50.276;9.372;2023-02-12T10:19:18;6.60;90.60
49413;DHT22;35493;50.276;9.372;2023-02-12T10:21:56;6.60;90.60
49413;DHT22;35493;50.276;9.372;2023-02-12T10:27:35;6.80;90.60
49413;DHT22;35493;50.276;9.372;2023-02-12T10:30:13;6.90;90.20
49413;DHT22;35493;50.276;9.372;2023-02-12T10:32:42;6.90;90.20
49413;DHT22;35493;50.276;9.372;2023-02-12T10:35:16;7.00;90.30
49413;DHT22;35493;50.276;9.372;2023-02-12T10:37:48;7.00;90.20
49413;DHT22;35493;50.276;9.372;2023-02-12T10:40:19;7.00;90.50
49413;DHT22;35493;50.276;9.372;2023-02-12T10:42:51;7.00;90.40
49413;DHT22;35493;50.276;9.372;2023-02-12T10:45:19;7.00;90.60
49413;DHT22;35493;50.276;9.372;2023-02-12T10:47:50;7.00;90.70
49413;DHT22;35493;50.276;9.372;2023-02-12T10:50:24;7.00;90.70
49413;DHT22;35493;50.276;9.372;2023-02-12T10:52:56;7.00;90.80
49413;DHT22;35493;50.276;9.372;2023-02-12T10:55:27;7.00;90.70
49413;DHT22;35493;50.276;9.372;2023-02-12T10:57:57;7.00;90.60
49413;DHT22;35493;50.276;9.372;2023-02-12T11:00:28;7.10;90.50
49413;DHT22;35493;50.276;9.372;2023-02-12T11:03:02;7.20;90.60
49413;DHT22;35493;50.276;9.372;2023-02-12T11:05:32;7.20;90.50
49413;DHT22;35493;50.276;9.372;2023-02-12T11:08:00;7.30;90.30
49413;DHT22;35493;50.276;9.372;2023-02-12T11:10:28;7.40;90.10
49413;DHT22;35493;50.276;9.372;2023-02-12T11:13:03;7.40;90.00
49413;DHT22;35493;50.276;9.372;2023-02-12T11:15:35;7.40;89.90
49413;DHT22;35493;50.276;9.372;2023-02-12T11:18:05;7.50;89.90
49413;DHT22;35493;50.276;9.372;2023-02-12T11:20:36;7.50;90.10
49413;DHT22;35493;50.276;9.372;2023-02-12T11:23:22;7.60;89.80
49413;DHT22;35493;50.276;9.372;2023-02-12T11:25:55;7.60;90.10
49413;DHT22;35493;50.276;9.372;2023-02-12T11:28:24;7.60;89.70
49413;DHT22;35493;50.276;9.372;2023-02-12T11:30:54;7.60;89.90
49413;DHT22;35493;50.276;9.372;2023-02-12T11:33:23;7.60;89.90
49413;DHT22;35493;50.276;9.372;2023-02-12T11:35:52;7.60;89.70
49413;DHT22;35493;50.276;9.372;2023-02-12T11:38:24;7.60;89.90
49413;DHT22;35493;50.276;9.372;2023-02-12T11:40:55;7.60;89.90
49413;DHT22;35493;50.276;9.372;2023-02-12T11:43:25;7.60;90.10
49413;DHT22;35493;50.276;9.372;2023-02-12T11:45:54;7.60;90.10
49413;DHT22;35493;50.276;9.372;2023-02-12T11:48:24;7.70;90.00
49413;DHT22;35493;50.276;9.372;2023-02-12T11:50:54;7.70;90.10
49413;DHT22;35493;50.276;9.372;2023-02-12T11:53:24;7.80;90.00
49413;DHT22;35493;50.276;9.372;2023-02-12T11:55:56;7.80;89.70
49413;DHT22;35493;50.276;9.372;2023-02-12T11:58:26;7.90;89.60
49413;DHT22;35493;50.276;9.372;2023-02-12T12:00:58;8.00;89.30
49413;DHT22;35493;50.276;9.372;2023-02-12T12:03:29;8.10;89.10
49413;DHT22;35493;50.276;9.372;2023-02-12T12:06:01;8.20;89.50
49413;DHT22;35493;50.276;9.372;2023-02-12T12:08:37;8.20;89.00
49413;DHT22;35493;50.276;9.372;2023-02-12T12:11:10;8.20;88.90
49413;DHT22;35493;50.276;9.372;2023-02-12T12:13:49;8.30;88.70
49413;DHT22;35493;50.276;9.372;2023-02-12T12:16:21;8.30;88.80
49413;DHT22;35493;50.276;9.372;2023-02-12T12:19:13;8.30;89.00
49413;DHT22;35493;50.276;9.372;2023-02-12T12:22:03;8.40;88.70
49413;DHT22;35493;50.276;9.372;2023-02-12T12:24:38;8.50;88.60
49413;DHT22;35493;50.276;9.372;2023-02-12T12:27:14;8.50;88.60
49413;DHT22;35493;50.276;9.372;2023-02-12T12:30:17;8.50;88.80
49413;DHT22;35493;50.276;9.372;2023-02-12T12:32:46;8.40;88.70
49413;DHT22;35493;50.276;9.372;2023-02-12T12:35:17;8.40;88.70
49413;DHT22;35493;50.276;9.372;2023-02-12T12:37:54;8.50;88.40
49413;DHT22;35493;50.276;9.372;2023-02-12T12:40:38;8.50;88.60
49413;DHT22;35493;50.276;9.372;2023-02-12T12:43:12;8.50;88.40
49413;DHT22;35493;50.276;9.372;2023-02-12T12:46:19;8.50;88.20
49413;DHT22;35493;50.276;9.372;2023-02-12T12:49:14;8.50;88.60
49413;DHT22;35493;50.276;9.372;2023-02-12T12:52:02;8.60;88.30
49413;DHT22;35493;50.276;9.372;2023-02-12T12:54:43;8.60;88.30
49413;DHT22;35493;50.276;9.372;2023-02-12T12:57:19;8.60;88.20
49413;DHT22;35493;50.276;9.372;2023-02-12T13:00:05;8.60;88.00
49413;DHT22;35493;50.276;9.372;2023-02-12T13:08:55;8.70;87.70
49413;DHT22;35493;50.276;9.372;2023-02-12T13:11:34;8.70;87.60
49413;DHT22;35493;50.276;9.372;2023-02-12T13:14:13;8.70;87.60
49413;DHT22;35493;50.276;9.372;2023-02-12T13:16:49;8.70;87.50
49413;DHT22;35493;50.276;9.372;2023-02-12T13:19:26;8.70;87.60
49413;DHT22;35493;50.276;9.372;2023-02-12T13:21:58;8.70;87.60
49413;DHT22;35493;50.276;9.372;2023-02-12T13:24:30;8.80;87.70
49413;DHT22;35493;50.276;9.372;2023-02-12T13:27:02;8.70;87.90
49413;DHT22;35493;50.276;9.372;2023-02-12T13:29:33;8.80;87.80
49413;DHT22;35493;50.276;9.372;2023-02-12T13:32:01;8.80;87.80
49413;DHT22;35493;50.276;9.372;2023-02-12T13:34:31;8.80;87.70
49413;DHT22;35493;50.276;9.372;2023-02-12T13:37:03;8.80;87.70
49413;DHT22;35493;50.276;9.372;2023-02-12T13:39:35;8.80;87.60
49413;DHT22;35493;50.276;9.372;2023-02-12T13:42:14;8.80;87.60
49413;DHT22;35493;50.276;9.372;2023-02-12T13:44:51;8.80;87.60
49413;DHT22;35493;50.276;9.372;2023-02-12T13:47:27;8.80;87.60
49413;DHT22;35493;50.276;9.372;2023-02-12T13:50:00;8.80;87.70
49413;DHT22;35493;50.276;9.372;2023-02-12T13:52:34;8.80;87.70
49413;DHT22;35493;50.276;9.372;2023-02-12T13:55:20;8.80;87.60
49413;DHT22;35493;50.276;9.372;2023-02-12T13:58:38;8.80;87.50
49413;DHT22;35493;50.276;9.372;2023-02-12T14:01:06;8.80;87.50
49413;DHT22;35493;50.276;9.372;2023-02-12T14:03:35;8.90;87.50
49413;DHT22;35493;50.276;9.372;2023-02-12T14:06:14;8.80;87.60
49413;DHT22;35493;50.276;9.372;2023-02-12T14:08:44;8.80;87.60
49413;DHT22;35493;50.276;9.372;2023-02-12T14:11:14;8.80;87.50
49413;DHT22;35493;50.276;9.372;2023-02-12T14:13:50;8.80;87.80
49413;DHT22;35493;50.276;9.372;2023-02-12T14:16:37;8.80;87.80
49413;DHT22;35493;50.276;9.372;2023-02-12T14:25:31;8.70;87.90
49413;DHT22;35493;50.276;9.372;2023-02-12T14:28:06;8.70;87.80
49413;DHT22;35493;50.276;9.372;2023-02-12T14:30:36;8.70;87.90
49413;DHT22;35493;50.276;9.372;2023-02-12T14:33:20;8.70;87.90
49413;DHT22;35493;50.276;9.372;2023-02-12T14:39:00;8.70;87.90
49413;DHT22;35493;50.276;9.372;2023-02-12T14:41:30;8.70;87.90
49413;DHT22;35493;50.276;9.372;2023-02-12T14:47:15;8.70;87.80
49413;DHT22;35493;50.276;9.372;2023-02-12T14:50:10;8.70;87.90
49413;DHT22;35493;50.276;9.372;2023-02-12T14:52:45;8.70;87.80
49413;DHT22;35493;50.276;9.372;2023-02-12T14:55:20;8.70;87.90
49413;DHT22;35493;50.276;9.372;2023-02-12T14:57:49;8.60;87.80
49413;DHT22;35493;50.276;9.372;2023-02-12T15:00:22;8.60;87.90
49413;DHT22;35493;50.276;9.372;2023-02-12T15:02:52;8.60;87.90
49413;DHT22;35493;50.276;9.372;2023-02-12T15:05:23;8.60;88.00
49413;DHT22;35493;50.276;9.372;2023-02-12T15:07:55;8.60;88.00
49413;DHT22;35493;50.276;9.372;2023-02-12T15:10:29;8.60;88.10
49413;DHT22;35493;50.276;9.372;2023-02-12T15:13:05;8.60;88.20
49413;DHT22;35493;50.276;9.372;2023-02-12T15:15:36;8.60;88.10
49413;DHT22;35493;50.276;9.372;2023-02-12T15:18:11;8.60;88.20
49413;DHT22;35493;50.276;9.372;2023-02-12T15:20:45;8.60;88.10
49413;DHT22;35493;50.276;9.372;2023-02-12T15:23:32;8.60;88.10
49413;DHT22;35493;50.276;9.372;2023-02-12T15:26:00;8.50;88.20
49413;DHT22;35493;50.276;9.372;2023-02-12T15:28:29;8.60;88.30
49413;DHT22;35493;50.276;9.372;2023-02-12T15:30:58;8.50;88.20
49413;DHT22;35493;50.276;9.372;2023-02-12T15:33:31;8.60;88.10
49413;DHT22;35493;50.276;9.372;2023-02-12T15:36:00;8.60;88.30
49413;DHT22;35493;50.276;9.372;2023-02-12T15:38:33;8.50;88.40
49413;DHT22;35493;50.276;9.372;2023-02-12T15:41:02;8.50;88.30
49413;DHT22;35493;50.276;9.372;2023-02-12T15:43:31;8.50;88.30
49413;DHT22;35493;50.276;9.372;2023-02-12T15:46:01;8.50;88.40
49413;DHT22;35493;50.276;9.372;2023-02-12T15:48:30;8.50;88.40
49413;DHT22;35493;50.276;9.372;2023-02-12T15:51:04;8.50;88.30
49413;DHT22;35493;50.276;9.372;2023-02-12T15:53:33;8.50;88.30
49413;DHT22;35493;50.276;9.372;2023-02-12T15:56:02;8.50;88.30
49413;DHT22;35493;50.276;9.372;2023-02-12T15:58:31;8.50;88.30
49413;DHT22;35493;50.276;9.372;2023-02-12T16:01:04;8.50;88.30
49413;DHT22;35493;50.276;9.372;2023-02-12T16:03:34;8.50;88.20
49413;DHT22;35493;50.276;9.372;2023-02-12T16:06:06;8.40;88.30
49413;DHT22;35493;50.276;9.372;2023-02-12T16:08:36;8.40;88.40
49413;DHT22;35493;50.276;9.372;2023-02-12T16:11:05;8.40;88.40
49413;DHT22;35493;50.276;9.372;2023-02-12T16:13:41;8.40;88.50
49413;DHT22;35493;50.276;9.372;2023-02-12T16:16:19;8.40;88.40
49413;DHT22;35493;50.276;9.372;2023-02-12T16:19:01;8.40;88.40
49413;DHT22;35493;50.276;9.372;2023-02-12T16:21:30;8.30;88.50
49413;DHT22;35493;50.276;9.372;2023-02-12T16:23:58;8.30;88.50
49413;DHT22;35493;50.276;9.372;2023-02-12T16:26:25;8.30;88.50
49413;DHT22;35493;50.276;9.372;2023-02-12T16:28:54;8.40;88.40
49413;DHT22;35493;50.276;9.372;2023-02-12T16:31:25;8.30;88.50
49413;DHT22;35493;50.276;9.372;2023-02-12T16:33:53;8.30;88.60
49413;DHT22;35493;50.276;9.372;2023-02-12T16:36:30;8.30;88.60
49413;DHT22;35493;50.276;9.372;2023-02-12T16:38:59;8.30;88.70